»·PEaware :: DAL6235 KIAH-KJFK

DAL6235 :: KIAH-KJFK

FLIGHT INFORMATION

Flight Status: Arrived
Operator:
Delta Air Lines
More flights by this operator :: More flights under this callsign
Pilot: Anonymous 35349 (35349)
Aircraft: BOEING 737-700
(B737)
More flights by this aircraft type
Origin: KIAH G Bush Intercontinental/Houst
United States
Destination: KJFK Kennedy Intl
United States
More flights between these airports :: More routes between these airports
Route:
File this flight plan on PilotEdge
Remarks:
Altitude:
(Current/Filed)
35,000ft
Speed:
(Current/Filed)
330kts
Departed: 09-Jul-21 07:11 PM
Arrived: 09-Jul-21 10:13 PM
Distance/Time
Traveled:
1230nm/3:01
Distance/Time
To Go:
Arrived

Flight Plot

Page will automatically refresh every two minutes.

Flight plan parsing failed; only flown route is shown


Map Options




Map Legend


Flown Route
Filed Route
Departure Airport
Arrival Airport
Navaid (VOR, NDB)
Fix

Horizontal Profiles

Position Reports

Time Latitude Longitude Heading Altitude Ground
Speed
09-Jul-21 18:58 29.984802 -95.349751 45 107ft 0kts
09-Jul-21 18:59 29.984804 -95.349750 45 107ft 0kts
09-Jul-21 19:00 29.984804 -95.349750 45 107ft 0kts
09-Jul-21 19:01 29.984804 -95.349750 45 107ft 0kts
09-Jul-21 19:02 29.984804 -95.349750 45 107ft 0kts
09-Jul-21 19:03 29.984804 -95.349750 45 107ft 0kts
09-Jul-21 19:04 29.984674 -95.349900 45 107ft 2kts
09-Jul-21 19:05 29.984621 -95.350501 273 107ft 12kts
09-Jul-21 19:06 29.985368 -95.354228 329 107ft 24kts
09-Jul-21 19:07 29.987306 -95.357418 240 107ft 0kts
09-Jul-21 19:08 29.987302 -95.357425 240 107ft 0kts
09-Jul-21 19:09 29.987299 -95.357431 240 107ft 0kts
09-Jul-21 19:11 29.985891 -95.356742 151 107ft 43kts
09-Jul-21 19:12 29.951176 -95.326340 110 1153ft 224kts
09-Jul-21 19:13 29.937972 -95.249964 104 3170ft 249kts
09-Jul-21 19:14 29.938157 -95.167057 93 4995ft 268kts
09-Jul-21 19:15 29.939511 -95.078450 93 6828ft 283kts
09-Jul-21 19:16 29.946387 -94.986413 89 8647ft 290kts
09-Jul-21 19:17 29.953534 -94.891374 88 10205ft 313kts
09-Jul-21 19:18 29.961820 -94.779781 86 11302ft 385kts
09-Jul-21 19:19 29.971165 -94.652435 86 12320ft 404kts
09-Jul-21 19:20 29.980559 -94.522535 85 13330ft 407kts
09-Jul-21 19:21 29.989889 -94.391825 85 14347ft 410kts
09-Jul-21 19:22 30.001207 -94.260615 81 15355ft 411kts
09-Jul-21 19:23 30.017278 -94.129297 81 16366ft 414kts
09-Jul-21 19:24 30.033178 -93.997479 81 17364ft 414kts
09-Jul-21 19:25 30.049509 -93.866410 81 18039ft 415kts
09-Jul-21 19:26 30.065844 -93.734025 81 18429ft 417kts
09-Jul-21 19:27 30.082201 -93.600326 81 19432ft 422kts
09-Jul-21 19:28 30.098566 -93.465408 81 20433ft 427kts
09-Jul-21 19:29 30.115014 -93.328611 81 21433ft 434kts
09-Jul-21 19:30 30.131591 -93.189461 81 22436ft 441kts
09-Jul-21 19:31 30.156281 -93.050336 66 23443ft 445kts
09-Jul-21 19:31 30.190272 -92.936803 70 24278ft 453kts
09-Jul-21 19:32 30.230466 -92.796847 70 25046ft 463kts
09-Jul-21 19:34 30.277769 -92.631404 70 25050ft 464kts
09-Jul-21 19:35 30.318187 -92.489344 70 25049ft 465kts
09-Jul-21 19:36 30.358444 -92.347189 70 25054ft 465kts
09-Jul-21 19:36 30.392122 -92.227749 70 25798ft 471kts
09-Jul-21 19:37 30.432932 -92.082415 71 26794ft 478kts
09-Jul-21 19:39 30.515429 -91.786445 71 28774ft 484kts
09-Jul-21 19:40 30.556798 -91.636918 71 29766ft 486kts
09-Jul-21 19:41 30.597816 -91.487928 71 30749ft 486kts
09-Jul-21 19:42 30.638792 -91.338342 71 31070ft 486kts
09-Jul-21 19:43 30.679569 -91.188731 71 31070ft 485kts
09-Jul-21 19:44 30.720123 -91.039178 71 31072ft 484kts
09-Jul-21 19:45 30.760326 -90.890163 71 31076ft 484kts
09-Jul-21 19:46 30.800506 -90.740481 71 31079ft 484kts
09-Jul-21 19:47 30.840416 -90.591045 71 31082ft 484kts
09-Jul-21 19:48 30.880177 -90.441391 71 31083ft 484kts
09-Jul-21 19:49 30.919746 -90.291688 71 31087ft 484kts
09-Jul-21 19:50 30.959115 -90.141971 71 31091ft 483kts
09-Jul-21 19:51 30.998382 -89.991864 71 31095ft 483kts
09-Jul-21 19:52 31.037334 -89.842164 71 31095ft 483kts
09-Jul-21 19:53 31.076218 -89.691941 71 31094ft 482kts
09-Jul-21 19:54 31.114796 -89.542114 72 31092ft 481kts
09-Jul-21 19:55 31.153096 -89.392571 72 31092ft 481kts
09-Jul-21 19:56 31.191269 -89.242726 72 31091ft 481kts
09-Jul-21 19:57 31.229298 -89.092646 72 31091ft 481kts
09-Jul-21 19:58 31.267158 -88.942400 72 31091ft 481kts
09-Jul-21 19:59 31.304674 -88.792754 72 31093ft 480kts
09-Jul-21 20:00 31.342112 -88.642567 72 31095ft 480kts
09-Jul-21 20:01 31.379234 -88.492859 72 31100ft 479kts
09-Jul-21 20:02 31.416178 -88.343041 72 31104ft 478kts
09-Jul-21 20:03 31.452696 -88.194132 72 31107ft 477kts
09-Jul-21 20:04 31.489144 -88.044674 72 31108ft 476kts
09-Jul-21 20:05 31.542423 -87.904024 60 31109ft 473kts
09-Jul-21 20:06 31.602271 -87.766738 61 31108ft 474kts
09-Jul-21 20:07 31.662297 -87.629132 61 31108ft 474kts
09-Jul-21 20:08 31.722270 -87.491132 61 31108ft 475kts
09-Jul-21 20:09 31.782323 -87.352427 62 31107ft 475kts
09-Jul-21 20:10 31.842200 -87.213600 62 31104ft 477kts
09-Jul-21 20:11 31.902261 -87.073816 62 31096ft 479kts
09-Jul-21 20:12 31.962096 -86.934024 62 31101ft 480kts
09-Jul-21 20:13 32.022155 -86.793140 62 31102ft 481kts
09-Jul-21 20:14 32.082058 -86.652091 62 31103ft 481kts
09-Jul-21 20:15 32.141826 -86.510800 63 31103ft 482kts
09-Jul-21 20:16 32.201639 -86.368847 63 31095ft 482kts
09-Jul-21 20:17 32.255742 -86.223157 67 31104ft 484kts
09-Jul-21 20:18 32.306605 -86.076101 67 31087ft 484kts
09-Jul-21 20:19 32.357424 -85.928399 67 31094ft 484kts
09-Jul-21 20:20 32.407854 -85.781165 67 31103ft 484kts
09-Jul-21 20:21 32.458392 -85.632947 67 31116ft 484kts
09-Jul-21 20:22 32.508701 -85.484727 67 31123ft 484kts
09-Jul-21 20:23 32.558696 -85.336751 67 31127ft 485kts
09-Jul-21 20:24 32.608713 -85.188028 67 31115ft 485kts
09-Jul-21 20:25 32.658507 -85.039283 68 31102ft 486kts
09-Jul-21 20:26 32.708244 -84.890018 68 31102ft 487kts
09-Jul-21 20:27 32.757946 -84.740157 68 31107ft 487kts
09-Jul-21 20:28 32.807397 -84.590347 68 31107ft 487kts
09-Jul-21 20:29 32.856574 -84.440661 68 31109ft 487kts
09-Jul-21 20:30 32.905710 -84.290391 68 31110ft 487kts
09-Jul-21 20:31 32.954593 -84.140176 68 31109ft 487kts
09-Jul-21 20:32 33.006441 -83.990951 57 31099ft 486kts
09-Jul-21 20:33 33.092209 -83.867191 49 31099ft 484kts
09-Jul-21 20:34 33.177807 -83.743408 49 31099ft 484kts
09-Jul-21 20:35 33.263271 -83.619435 49 31097ft 484kts
09-Jul-21 20:36 33.348749 -83.495019 49 31097ft 484kts
09-Jul-21 20:37 33.433941 -83.370596 49 31073ft 483kts
09-Jul-21 20:38 33.518913 -83.246061 49 31089ft 483kts
09-Jul-21 20:39 33.604022 -83.120905 49 31090ft 482kts
09-Jul-21 20:40 33.688623 -82.996067 49 31087ft 483kts
09-Jul-21 20:41 33.773173 -82.870872 49 31077ft 483kts
09-Jul-21 20:42 33.857595 -82.745426 49 31070ft 483kts
09-Jul-21 20:43 33.941990 -82.619577 49 31060ft 483kts
09-Jul-21 20:44 34.026568 -82.493019 49 31050ft 484kts
09-Jul-21 20:45 34.110747 -82.366613 49 31041ft 484kts
09-Jul-21 20:46 34.195044 -82.239588 49 31037ft 485kts
09-Jul-21 20:47 34.275885 -82.108812 60 31045ft 486kts
09-Jul-21 20:48 34.344984 -81.968492 57 31034ft 486kts
09-Jul-21 20:49 34.415011 -81.828692 57 31030ft 485kts
09-Jul-21 20:50 34.484980 -81.688449 57 31037ft 486kts
09-Jul-21 20:51 34.554843 -81.547859 57 31033ft 486kts
09-Jul-21 20:52 34.624288 -81.407550 57 31022ft 485kts
09-Jul-21 20:53 34.693825 -81.266501 57 31012ft 485kts
09-Jul-21 20:54 34.762827 -81.125968 57 31010ft 485kts
09-Jul-21 20:55 34.825224 -80.980366 66 31006ft 486kts
09-Jul-21 20:56 34.880331 -80.830443 64 31002ft 485kts
09-Jul-21 20:57 34.935382 -80.680421 64 30994ft 484kts
09-Jul-21 20:58 34.990194 -80.530351 65 30990ft 485kts
09-Jul-21 20:59 35.044822 -80.380063 65 30993ft 485kts
09-Jul-21 21:00 35.099333 -80.229405 65 30991ft 485kts
09-Jul-21 21:01 35.153735 -80.078309 65 30989ft 486kts
09-Jul-21 21:02 35.207869 -79.927399 65 30993ft 484kts
09-Jul-21 21:03 35.261924 -79.776175 65 30991ft 484kts
09-Jul-21 21:04 35.315632 -79.625200 65 30989ft 484kts
09-Jul-21 21:05 35.369213 -79.473857 65 30992ft 484kts
09-Jul-21 21:06 35.422553 -79.322453 66 30984ft 484kts
09-Jul-21 21:07 35.475777 -79.170644 66 30967ft 484kts
09-Jul-21 21:08 35.528709 -79.018917 66 30962ft 483kts
09-Jul-21 21:09 35.581365 -78.867244 66 30967ft 483kts
09-Jul-21 21:10 35.633900 -78.715172 66 30969ft 483kts
09-Jul-21 21:11 35.686138 -78.563206 67 30971ft 483kts
09-Jul-21 21:12 35.738231 -78.410909 67 30971ft 483kts
09-Jul-21 21:13 35.790193 -78.258240 67 30969ft 484kts
09-Jul-21 21:14 35.842123 -78.104886 67 30963ft 484kts
09-Jul-21 21:15 35.893728 -77.951718 67 30951ft 484kts
09-Jul-21 21:16 35.945179 -77.798230 67 30947ft 484kts
09-Jul-21 21:17 36.007879 -77.652405 50 30935ft 484kts
09-Jul-21 21:18 36.090546 -77.520327 52 30932ft 486kts
09-Jul-21 21:19 36.172664 -77.387386 52 30932ft 487kts
09-Jul-21 21:20 36.254905 -77.253731 52 30929ft 488kts
09-Jul-21 21:21 36.337047 -77.119715 52 30928ft 490kts
09-Jul-21 21:22 36.419535 -76.984598 52 30927ft 491kts
09-Jul-21 21:23 36.502146 -76.848744 52 30922ft 492kts
09-Jul-21 21:24 36.584475 -76.712815 52 30921ft 493kts
09-Jul-21 21:25 36.666984 -76.576029 52 30921ft 494kts
09-Jul-21 21:26 36.749389 -76.438867 52 30912ft 495kts
09-Jul-21 21:27 36.831607 -76.301459 52 30910ft 496kts
09-Jul-21 21:28 36.925393 -76.178048 22 30898ft 490kts
09-Jul-21 21:29 37.032180 -76.126138 20 30899ft 490kts
09-Jul-21 21:30 37.177389 -76.048838 19 30897ft 492kts
09-Jul-21 21:31 37.303756 -75.981378 19 30897ft 495kts
09-Jul-21 21:32 37.430768 -75.913327 19 30891ft 497kts
09-Jul-21 21:34 37.557392 -75.843218 26 30884ft 501kts
09-Jul-21 21:35 37.676711 -75.750841 27 30888ft 502kts
09-Jul-21 21:36 37.794489 -75.662276 27 30250ft 475kts
09-Jul-21 21:37 37.903682 -75.580051 27 29160ft 439kts
09-Jul-21 21:38 38.007128 -75.501536 27 28157ft 428kts
09-Jul-21 21:39 38.110344 -75.429986 21 27153ft 416kts
09-Jul-21 21:40 38.212826 -75.365481 22 26159ft 407kts
09-Jul-21 21:41 38.313357 -75.301901 22 25157ft 398kts
09-Jul-21 21:42 38.411494 -75.239639 22 24157ft 390kts
09-Jul-21 21:43 38.507883 -75.178307 22 23157ft 385kts
09-Jul-21 21:44 38.603002 -75.117606 23 22159ft 380kts
09-Jul-21 21:45 38.697113 -75.057353 23 21162ft 375kts
09-Jul-21 21:46 38.789886 -74.997792 23 20163ft 370kts
09-Jul-21 21:47 38.881162 -74.939026 23 19167ft 365kts
09-Jul-21 21:48 38.971484 -74.880698 24 18166ft 360kts
09-Jul-21 21:49 39.060113 -74.823312 24 17165ft 355kts
09-Jul-21 21:50 39.140791 -74.751647 38 16166ft 352kts
09-Jul-21 21:51 39.215321 -74.671028 37 15171ft 347kts
09-Jul-21 21:51 39.276523 -74.604735 37 14339ft 342kts
09-Jul-21 21:53 39.360760 -74.513238 37 13175ft 337kts
09-Jul-21 21:54 39.432096 -74.435530 37 12176ft 332kts
09-Jul-21 21:55 39.501921 -74.359243 37 11180ft 326kts
09-Jul-21 21:56 39.570568 -74.284045 37 10181ft 320kts
09-Jul-21 21:56 39.626866 -74.222233 37 9861ft 317kts
09-Jul-21 21:57 39.693950 -74.148390 37 9858ft 317kts
09-Jul-21 21:59 39.772445 -74.061744 37 9855ft 317kts
09-Jul-21 22:00 39.840162 -73.987855 32 9850ft 316kts
09-Jul-21 22:01 39.916324 -73.932620 25 9853ft 313kts
09-Jul-21 22:01 39.980242 -73.887356 25 9854ft 314kts
09-Jul-21 22:02 40.061645 -73.863794 349 9853ft 302kts
09-Jul-21 22:03 40.145429 -73.872548 352 9849ft 302kts
09-Jul-21 22:04 40.226900 -73.879893 352 9030ft 282kts
09-Jul-21 22:05 40.302874 -73.886758 351 8010ft 266kts
09-Jul-21 22:06 40.372902 -73.893086 351 7137ft 245kts
09-Jul-21 22:07 40.440441 -73.899209 351 6171ft 233kts
09-Jul-21 22:08 40.493887 -73.887592 24 4543ft 199kts
09-Jul-21 22:09 40.545437 -73.846274 27 2719ft 209kts
09-Jul-21 22:10 40.592842 -73.808361 29 921ft 183kts
09-Jul-21 22:11 40.631195 -73.778389 30 58ft 118kts
09-Jul-21 22:12 40.646469 -73.770608 284 23ft 12kts

Navigation Log

Ident Type
Flight plan parsing failed, navigation log unavailable